sensor_id;sensor_type;location;lat;lon;timestamp;P1;durP1;ratioP1;P2;durP2;ratioP2
80101;SDS011;69407;44.966;19.622;2024-03-08T00:00:26;27.13;;;16.98;;
80101;SDS011;69407;44.966;19.622;2024-03-08T00:02:52;28.70;;;16.88;;
80101;SDS011;69407;44.966;19.622;2024-03-08T00:05:19;26.35;;;16.02;;
80101;SDS011;69407;44.966;19.622;2024-03-08T00:07:45;27.95;;;15.98;;
80101;SDS011;69407;44.966;19.622;2024-03-08T00:10:12;31.17;;;16.83;;
80101;SDS011;69407;44.966;19.622;2024-03-08T00:12:42;32.17;;;17.52;;
80101;SDS011;69407;44.966;19.622;2024-03-08T00:15:09;32.63;;;17.90;;
80101;SDS011;69407;44.966;19.622;2024-03-08T00:17:36;28.17;;;16.27;;
80101;SDS011;69407;44.966;19.622;2024-03-08T00:20:02;27.05;;;15.95;;
80101;SDS011;69407;44.966;19.622;2024-03-08T00:22:33;26.48;;;15.10;;
80101;SDS011;69407;44.966;19.622;2024-03-08T00:27:27;24.95;;;14.23;;
80101;SDS011;69407;44.966;19.622;2024-03-08T00:29:56;26.45;;;14.63;;
80101;SDS011;69407;44.966;19.622;2024-03-08T00:32:22;25.83;;;14.70;;
80101;SDS011;69407;44.966;19.622;2024-03-08T00:34:50;25.27;;;14.90;;
80101;SDS011;69407;44.966;19.622;2024-03-08T00:37:19;25.70;;;15.18;;
80101;SDS011;69407;44.966;19.622;2024-03-08T00:39:45;23.75;;;14.55;;
80101;SDS011;69407;44.966;19.622;2024-03-08T00:42:10;24.70;;;13.80;;
80101;SDS011;69407;44.966;19.622;2024-03-08T00:44:36;23.73;;;15.10;;
80101;SDS011;69407;44.966;19.622;2024-03-08T00:47:02;25.27;;;14.30;;
80101;SDS011;69407;44.966;19.622;2024-03-08T00:49:28;24.88;;;14.10;;
80101;SDS011;69407;44.966;19.622;2024-03-08T00:51:53;26.50;;;14.55;;
80101;SDS011;69407;44.966;19.622;2024-03-08T00:54:19;26.80;;;14.50;;
80101;SDS011;69407;44.966;19.622;2024-03-08T00:56:44;26.65;;;15.23;;
80101;SDS011;69407;44.966;19.622;2024-03-08T00:59:11;25.33;;;14.52;;
80101;SDS011;69407;44.966;19.622;2024-03-08T01:01:36;26.50;;;15.40;;
80101;SDS011;69407;44.966;19.622;2024-03-08T01:04:01;26.38;;;15.18;;
80101;SDS011;69407;44.966;19.622;2024-03-08T01:06:27;26.58;;;13.50;;
80101;SDS011;69407;44.966;19.622;2024-03-08T01:08:52;27.75;;;16.20;;
80101;SDS011;69407;44.966;19.622;2024-03-08T01:11:18;30.10;;;15.50;;
80101;SDS011;69407;44.966;19.622;2024-03-08T01:13:44;31.70;;;16.30;;
80101;SDS011;69407;44.966;19.622;2024-03-08T01:16:12;31.05;;;15.85;;
80101;SDS011;69407;44.966;19.622;2024-03-08T01:18:38;29.48;;;16.20;;
80101;SDS011;69407;44.966;19.622;2024-03-08T01:21:03;28.45;;;16.38;;
80101;SDS011;69407;44.966;19.622;2024-03-08T01:23:29;33.25;;;16.52;;
80101;SDS011;69407;44.966;19.622;2024-03-08T01:25:55;32.15;;;19.25;;
80101;SDS011;69407;44.966;19.622;2024-03-08T01:28:24;32.55;;;17.67;;
80101;SDS011;69407;44.966;19.622;2024-03-08T01:30:50;35.33;;;18.67;;
80101;SDS011;69407;44.966;19.622;2024-03-08T01:33:20;57.63;;;29.35;;
80101;SDS011;69407;44.966;19.622;2024-03-08T01:35:47;38.70;;;21.58;;
80101;SDS011;69407;44.966;19.622;2024-03-08T01:38:13;35.80;;;18.60;;
80101;SDS011;69407;44.966;19.622;2024-03-08T01:40:38;32.20;;;17.17;;
80101;SDS011;69407;44.966;19.622;2024-03-08T01:46:07;34.08;;;18.52;;
80101;SDS011;69407;44.966;19.622;2024-03-08T01:48:33;32.33;;;17.92;;
80101;SDS011;69407;44.966;19.622;2024-03-08T01:50:59;31.55;;;16.80;;
80101;SDS011;69407;44.966;19.622;2024-03-08T01:53:26;32.72;;;16.38;;
80101;SDS011;69407;44.966;19.622;2024-03-08T01:55:56;37.08;;;18.55;;
80101;SDS011;69407;44.966;19.622;2024-03-08T01:58:23;29.75;;;16.10;;
80101;SDS011;69407;44.966;19.622;2024-03-08T02:00:49;30.38;;;17.25;;
80101;SDS011;69407;44.966;19.622;2024-03-08T02:03:15;33.13;;;17.30;;
80101;SDS011;69407;44.966;19.622;2024-03-08T02:05:41;34.13;;;18.35;;
80101;SDS011;69407;44.966;19.622;2024-03-08T02:08:07;32.33;;;17.90;;
80101;SDS011;69407;44.966;19.622;2024-03-08T02:10:33;31.83;;;16.75;;
80101;SDS011;69407;44.966;19.622;2024-03-08T02:13:01;31.42;;;18.25;;
80101;SDS011;69407;44.966;19.622;2024-03-08T02:15:49;31.27;;;16.00;;
80101;SDS011;69407;44.966;19.622;2024-03-08T02:18:19;31.58;;;16.88;;
80101;SDS011;69407;44.966;19.622;2024-03-08T02:20:54;33.15;;;16.55;;
80101;SDS011;69407;44.966;19.622;2024-03-08T02:23:21;32.22;;;17.27;;
80101;SDS011;69407;44.966;19.622;2024-03-08T02:25:48;32.05;;;17.95;;
80101;SDS011;69407;44.966;19.622;2024-03-08T02:28:14;29.83;;;16.25;;
80101;SDS011;69407;44.966;19.622;2024-03-08T02:30:40;32.13;;;17.58;;
80101;SDS011;69407;44.966;19.622;2024-03-08T02:33:06;32.33;;;17.50;;
80101;SDS011;69407;44.966;19.622;2024-03-08T02:35:34;36.15;;;16.63;;
80101;SDS011;69407;44.966;19.622;2024-03-08T02:38:00;33.03;;;17.88;;
80101;SDS011;69407;44.966;19.622;2024-03-08T02:40:26;34.90;;;18.40;;
80101;SDS011;69407;44.966;19.622;2024-03-08T02:42:52;38.13;;;19.77;;
80101;SDS011;69407;44.966;19.622;2024-03-08T02:45:17;34.97;;;19.67;;
80101;SDS011;69407;44.966;19.622;2024-03-08T02:47:43;35.15;;;19.02;;
80101;SDS011;69407;44.966;19.622;2024-03-08T02:50:09;35.72;;;19.38;;
80101;SDS011;69407;44.966;19.622;2024-03-08T02:52:34;37.47;;;19.90;;
80101;SDS011;69407;44.966;19.622;2024-03-08T02:55:03;39.47;;;20.02;;
80101;SDS011;69407;44.966;19.622;2024-03-08T02:57:31;35.47;;;20.50;;
80101;SDS011;69407;44.966;19.622;2024-03-08T02:59:57;39.53;;;20.05;;
80101;SDS011;69407;44.966;19.622;2024-03-08T03:02:24;36.60;;;18.65;;
80101;SDS011;69407;44.966;19.622;2024-03-08T03:04:51;38.10;;;21.30;;
80101;SDS011;69407;44.966;19.622;2024-03-08T03:07:17;38.03;;;20.65;;
80101;SDS011;69407;44.966;19.622;2024-03-08T03:09:43;42.35;;;22.58;;
80101;SDS011;69407;44.966;19.622;2024-03-08T03:12:08;33.83;;;17.83;;
80101;SDS011;69407;44.966;19.622;2024-03-08T03:14:36;38.15;;;19.73;;
80101;SDS011;69407;44.966;19.622;2024-03-08T03:17:03;45.65;;;23.23;;
80101;SDS011;69407;44.966;19.622;2024-03-08T03:19:29;50.67;;;26.35;;
80101;SDS011;69407;44.966;19.622;2024-03-08T03:21:55;41.08;;;22.63;;
80101;SDS011;69407;44.966;19.622;2024-03-08T03:24:21;39.60;;;20.70;;
80101;SDS011;69407;44.966;19.622;2024-03-08T03:26:46;40.90;;;19.75;;
80101;SDS011;69407;44.966;19.622;2024-03-08T03:29:13;37.78;;;20.50;;
80101;SDS011;69407;44.966;19.622;2024-03-08T03:31:40;36.75;;;20.08;;
80101;SDS011;69407;44.966;19.622;2024-03-08T03:34:06;39.80;;;19.55;;
80101;SDS011;69407;44.966;19.622;2024-03-08T03:36:33;32.97;;;18.00;;
80101;SDS011;69407;44.966;19.622;2024-03-08T03:39:00;36.72;;;19.48;;
80101;SDS011;69407;44.966;19.622;2024-03-08T03:41:45;34.80;;;19.08;;
80101;SDS011;69407;44.966;19.622;2024-03-08T03:44:11;36.50;;;19.42;;
80101;SDS011;69407;44.966;19.622;2024-03-08T03:46:36;35.60;;;19.25;;
80101;SDS011;69407;44.966;19.622;2024-03-08T03:49:02;34.20;;;19.08;;
80101;SDS011;69407;44.966;19.622;2024-03-08T03:51:28;36.70;;;20.15;;
80101;SDS011;69407;44.966;19.622;2024-03-08T03:53:54;36.58;;;20.83;;
80101;SDS011;69407;44.966;19.622;2024-03-08T03:58:51;34.35;;;19.23;;
80101;SDS011;69407;44.966;19.622;2024-03-08T04:01:17;35.75;;;19.45;;
80101;SDS011;69407;44.966;19.622;2024-03-08T04:03:42;34.05;;;18.00;;
80101;SDS011;69407;44.966;19.622;2024-03-08T04:06:10;35.83;;;18.92;;
80101;SDS011;69407;44.966;19.622;2024-03-08T04:08:36;36.85;;;19.67;;
80101;SDS011;69407;44.966;19.622;2024-03-08T04:11:01;38.63;;;20.08;;
80101;SDS011;69407;44.966;19.622;2024-03-08T04:13:27;35.28;;;18.83;;
80101;SDS011;69407;44.966;19.622;2024-03-08T04:15:53;37.30;;;18.25;;
80101;SDS011;69407;44.966;19.622;2024-03-08T04:18:19;31.27;;;18.85;;
80101;SDS011;69407;44.966;19.622;2024-03-08T04:20:44;30.75;;;17.50;;
80101;SDS011;69407;44.966;19.622;2024-03-08T04:23:10;32.10;;;18.58;;
80101;SDS011;69407;44.966;19.622;2024-03-08T04:25:36;31.70;;;17.77;;
80101;SDS011;69407;44.966;19.622;2024-03-08T04:28:01;29.98;;;17.02;;
80101;SDS011;69407;44.966;19.622;2024-03-08T04:30:26;29.98;;;16.38;;
80101;SDS011;69407;44.966;19.622;2024-03-08T04:32:53;30.42;;;16.95;;
80101;SDS011;69407;44.966;19.622;2024-03-08T04:35:19;28.95;;;17.50;;
80101;SDS011;69407;44.966;19.622;2024-03-08T04:37:45;30.23;;;17.67;;
80101;SDS011;69407;44.966;19.622;2024-03-08T04:40:11;30.40;;;16.55;;
80101;SDS011;69407;44.966;19.622;2024-03-08T04:42:37;32.80;;;18.67;;
80101;SDS011;69407;44.966;19.622;2024-03-08T04:45:04;30.52;;;17.50;;
80101;SDS011;69407;44.966;19.622;2024-03-08T04:47:30;32.40;;;16.85;;
80101;SDS011;69407;44.966;19.622;2024-03-08T04:49:56;34.13;;;18.95;;
80101;SDS011;69407;44.966;19.622;2024-03-08T04:52:22;33.13;;;18.40;;
80101;SDS011;69407;44.966;19.622;2024-03-08T04:54:47;31.90;;;17.25;;
80101;SDS011;69407;44.966;19.622;2024-03-08T04:57:13;30.40;;;17.77;;
80101;SDS011;69407;44.966;19.622;2024-03-08T04:59:39;34.83;;;17.73;;
80101;SDS011;69407;44.966;19.622;2024-03-08T05:02:05;27.45;;;14.57;;
80101;SDS011;69407;44.966;19.622;2024-03-08T05:04:32;25.48;;;14.32;;
80101;SDS011;69407;44.966;19.622;2024-03-08T05:06:57;21.05;;;11.73;;
80101;SDS011;69407;44.966;19.622;2024-03-08T05:11:51;18.83;;;11.25;;
80101;SDS011;69407;44.966;19.622;2024-03-08T05:14:17;19.40;;;11.73;;
80101;SDS011;69407;44.966;19.622;2024-03-08T05:16:45;38.15;;;26.27;;
80101;SDS011;69407;44.966;19.622;2024-03-08T05:19:14;25.48;;;17.25;;
80101;SDS011;69407;44.966;19.622;2024-03-08T05:21:42;22.30;;;13.55;;
80101;SDS011;69407;44.966;19.622;2024-03-08T05:24:08;46.08;;;32.72;;
80101;SDS011;69407;44.966;19.622;2024-03-08T05:26:35;23.52;;;15.93;;
80101;SDS011;69407;44.966;19.622;2024-03-08T05:29:00;20.50;;;13.68;;
80101;SDS011;69407;44.966;19.622;2024-03-08T05:31:26;17.25;;;11.05;;
80101;SDS011;69407;44.966;19.622;2024-03-08T05:33:53;16.88;;;10.50;;
80101;SDS011;69407;44.966;19.622;2024-03-08T05:36:20;18.83;;;12.13;;
80101;SDS011;69407;44.966;19.622;2024-03-08T05:38:46;21.88;;;12.35;;
80101;SDS011;69407;44.966;19.622;2024-03-08T05:41:12;20.17;;;12.00;;
80101;SDS011;69407;44.966;19.622;2024-03-08T05:43:37;20.08;;;12.63;;
80101;SDS011;69407;44.966;19.622;2024-03-08T05:46:04;19.08;;;11.35;;
80101;SDS011;69407;44.966;19.622;2024-03-08T05:48:29;19.13;;;11.32;;
80101;SDS011;69407;44.966;19.622;2024-03-08T05:50:57;20.50;;;12.65;;
80101;SDS011;69407;44.966;19.622;2024-03-08T05:53:23;17.88;;;11.45;;
80101;SDS011;69407;44.966;19.622;2024-03-08T05:55:48;17.58;;;10.88;;
80101;SDS011;69407;44.966;19.622;2024-03-08T05:58:14;18.48;;;11.48;;
80101;SDS011;69407;44.966;19.622;2024-03-08T06:00:40;17.92;;;11.43;;
80101;SDS011;69407;44.966;19.622;2024-03-08T06:03:05;19.70;;;12.80;;
80101;SDS011;69407;44.966;19.622;2024-03-08T06:05:31;21.20;;;12.45;;
80101;SDS011;69407;44.966;19.622;2024-03-08T06:07:56;22.52;;;12.73;;
80101;SDS011;69407;44.966;19.622;2024-03-08T06:10:22;18.38;;;11.73;;
80101;SDS011;69407;44.966;19.622;2024-03-08T06:12:48;20.25;;;12.73;;
80101;SDS011;69407;44.966;19.622;2024-03-08T06:15:13;21.50;;;12.45;;
80101;SDS011;69407;44.966;19.622;2024-03-08T06:17:42;22.02;;;12.90;;
80101;SDS011;69407;44.966;19.622;2024-03-08T06:20:08;21.17;;;12.98;;
80101;SDS011;69407;44.966;19.622;2024-03-08T06:22:38;20.23;;;12.55;;
80101;SDS011;69407;44.966;19.622;2024-03-08T06:25:07;23.58;;;14.50;;
80101;SDS011;69407;44.966;19.622;2024-03-08T06:27:41;24.33;;;14.57;;
80101;SDS011;69407;44.966;19.622;2024-03-08T06:30:07;22.25;;;13.20;;
80101;SDS011;69407;44.966;19.622;2024-03-08T06:32:35;28.48;;;16.25;;
80101;SDS011;69407;44.966;19.622;2024-03-08T06:37:31;25.98;;;14.73;;
80101;SDS011;69407;44.966;19.622;2024-03-08T06:42:26;27.35;;;14.77;;
80101;SDS011;69407;44.966;19.622;2024-03-08T06:44:54;25.55;;;14.23;;
80101;SDS011;69407;44.966;19.622;2024-03-08T06:47:25;24.70;;;14.05;;
80101;SDS011;69407;44.966;19.622;2024-03-08T06:49:51;25.45;;;15.88;;
80101;SDS011;69407;44.966;19.622;2024-03-08T06:52:17;26.73;;;14.63;;
80101;SDS011;69407;44.966;19.622;2024-03-08T06:54:42;24.42;;;13.93;;
80101;SDS011;69407;44.966;19.622;2024-03-08T06:57:08;24.80;;;13.50;;
80101;SDS011;69407;44.966;19.622;2024-03-08T06:59:35;25.60;;;14.02;;
80101;SDS011;69407;44.966;19.622;2024-03-08T07:02:01;25.42;;;15.02;;
80101;SDS011;69407;44.966;19.622;2024-03-08T07:04:27;27.23;;;14.60;;
80101;SDS011;69407;44.966;19.622;2024-03-08T07:06:57;27.63;;;14.65;;
80101;SDS011;69407;44.966;19.622;2024-03-08T07:09:25;24.10;;;14.13;;
80101;SDS011;69407;44.966;19.622;2024-03-08T07:11:51;23.55;;;13.82;;
80101;SDS011;69407;44.966;19.622;2024-03-08T07:14:22;23.52;;;14.25;;
80101;SDS011;69407;44.966;19.622;2024-03-08T07:16:49;22.92;;;13.05;;
80101;SDS011;69407;44.966;19.622;2024-03-08T07:19:15;21.77;;;13.27;;
80101;SDS011;69407;44.966;19.622;2024-03-08T07:21:42;26.70;;;15.63;;
80101;SDS011;69407;44.966;19.622;2024-03-08T07:24:12;32.00;;;17.65;;
80101;SDS011;69407;44.966;19.622;2024-03-08T07:26:45;23.50;;;12.85;;
80101;SDS011;69407;44.966;19.622;2024-03-08T07:29:14;22.83;;;13.82;;
80101;SDS011;69407;44.966;19.622;2024-03-08T07:31:40;22.20;;;13.13;;
80101;SDS011;69407;44.966;19.622;2024-03-08T07:34:06;20.90;;;11.95;;
80101;SDS011;69407;44.966;19.622;2024-03-08T07:36:33;22.63;;;12.75;;
80101;SDS011;69407;44.966;19.622;2024-03-08T07:39:00;22.75;;;13.15;;
80101;SDS011;69407;44.966;19.622;2024-03-08T07:41:26;24.15;;;13.85;;
80101;SDS011;69407;44.966;19.622;2024-03-08T07:43:51;25.77;;;12.63;;
80101;SDS011;69407;44.966;19.622;2024-03-08T07:46:17;24.05;;;12.80;;
80101;SDS011;69407;44.966;19.622;2024-03-08T07:48:44;21.23;;;11.57;;
80101;SDS011;69407;44.966;19.622;2024-03-08T07:51:10;21.92;;;13.00;;
80101;SDS011;69407;44.966;19.622;2024-03-08T07:53:37;20.48;;;11.93;;
80101;SDS011;69407;44.966;19.622;2024-03-08T07:56:03;19.42;;;11.68;;
80101;SDS011;69407;44.966;19.622;2024-03-08T07:58:30;18.38;;;11.43;;
80101;SDS011;69407;44.966;19.622;2024-03-08T08:00:55;18.55;;;11.13;;
80101;SDS011;69407;44.966;19.622;2024-03-08T08:03:21;17.58;;;10.82;;
80101;SDS011;69407;44.966;19.622;2024-03-08T08:05:46;22.08;;;11.73;;
80101;SDS011;69407;44.966;19.622;2024-03-08T08:08:14;20.75;;;12.15;;
80101;SDS011;69407;44.966;19.622;2024-03-08T08:10:40;20.95;;;11.57;;
80101;SDS011;69407;44.966;19.622;2024-03-08T08:13:05;20.35;;;11.88;;
80101;SDS011;69407;44.966;19.622;2024-03-08T08:15:31;19.63;;;11.65;;
80101;SDS011;69407;44.966;19.622;2024-03-08T08:17:59;19.55;;;12.05;;
80101;SDS011;69407;44.966;19.622;2024-03-08T08:20:25;19.25;;;12.13;;
80101;SDS011;69407;44.966;19.622;2024-03-08T08:22:51;18.10;;;11.15;;
80101;SDS011;69407;44.966;19.622;2024-03-08T08:25:16;21.63;;;10.48;;
80101;SDS011;69407;44.966;19.622;2024-03-08T08:27:45;16.02;;;9.80;;
80101;SDS011;69407;44.966;19.622;2024-03-08T08:30:12;14.63;;;10.27;;
80101;SDS011;69407;44.966;19.622;2024-03-08T08:32:38;15.45;;;9.68;;
80101;SDS011;69407;44.966;19.622;2024-03-08T08:35:04;16.45;;;10.27;;
80101;SDS011;69407;44.966;19.622;2024-03-08T08:37:31;13.40;;;9.40;;
80101;SDS011;69407;44.966;19.622;2024-03-08T08:39:57;13.00;;;8.55;;
80101;SDS011;69407;44.966;19.622;2024-03-08T08:42:23;15.45;;;10.07;;
80101;SDS011;69407;44.966;19.622;2024-03-08T08:44:49;14.25;;;8.90;;
80101;SDS011;69407;44.966;19.622;2024-03-08T08:47:15;17.35;;;10.07;;
80101;SDS011;69407;44.966;19.622;2024-03-08T08:49:43;13.48;;;8.32;;
80101;SDS011;69407;44.966;19.622;2024-03-08T08:52:11;15.02;;;9.07;;
80101;SDS011;69407;44.966;19.622;2024-03-08T08:54:36;13.55;;;8.70;;
80101;SDS011;69407;44.966;19.622;2024-03-08T08:57:02;12.73;;;8.05;;
80101;SDS011;69407;44.966;19.622;2024-03-08T08:59:32;15.05;;;9.05;;
80101;SDS011;69407;44.966;19.622;2024-03-08T09:04:26;11.55;;;7.97;;
80101;SDS011;69407;44.966;19.622;2024-03-08T09:06:51;15.32;;;8.63;;
80101;SDS011;69407;44.966;19.622;2024-03-08T09:09:18;13.90;;;8.80;;
80101;SDS011;69407;44.966;19.622;2024-03-08T09:11:43;15.05;;;8.98;;
80101;SDS011;69407;44.966;19.622;2024-03-08T09:14:09;18.10;;;10.63;;
80101;SDS011;69407;44.966;19.622;2024-03-08T09:16:37;15.43;;;8.55;;
80101;SDS011;69407;44.966;19.622;2024-03-08T09:19:02;17.45;;;10.77;;
80101;SDS011;69407;44.966;19.622;2024-03-08T09:21:27;17.08;;;11.13;;
80101;SDS011;69407;44.966;19.622;2024-03-08T09:23:53;15.93;;;8.30;;
80101;SDS011;69407;44.966;19.622;2024-03-08T09:26:19;18.98;;;11.85;;
80101;SDS011;69407;44.966;19.622;2024-03-08T09:28:44;17.80;;;9.38;;
80101;SDS011;69407;44.966;19.622;2024-03-08T09:31:10;13.93;;;8.75;;
80101;SDS011;69407;44.966;19.622;2024-03-08T09:33:37;14.35;;;9.07;;
80101;SDS011;69407;44.966;19.622;2024-03-08T09:36:04;14.80;;;9.50;;
80101;SDS011;69407;44.966;19.622;2024-03-08T09:38:32;15.98;;;8.63;;
80101;SDS011;69407;44.966;19.622;2024-03-08T09:40:59;13.98;;;8.85;;
80101;SDS011;69407;44.966;19.622;2024-03-08T09:43:26;12.65;;;8.65;;
80101;SDS011;69407;44.966;19.622;2024-03-08T09:45:53;14.52;;;9.38;;
80101;SDS011;69407;44.966;19.622;2024-03-08T09:48:20;16.58;;;10.35;;
80101;SDS011;69407;44.966;19.622;2024-03-08T09:50:47;13.60;;;9.13;;
80101;SDS011;69407;44.966;19.622;2024-03-08T09:53:14;13.95;;;9.75;;
80101;SDS011;69407;44.966;19.622;2024-03-08T09:55:40;15.82;;;10.52;;
80101;SDS011;69407;44.966;19.622;2024-03-08T09:58:10;14.35;;;10.27;;
80101;SDS011;69407;44.966;19.622;2024-03-08T10:00:55;15.02;;;9.73;;
80101;SDS011;69407;44.966;19.622;2024-03-08T10:03:25;15.23;;;9.82;;
80101;SDS011;69407;44.966;19.622;2024-03-08T10:05:51;14.80;;;9.85;;
80101;SDS011;69407;44.966;19.622;2024-03-08T10:08:17;13.90;;;9.80;;
80101;SDS011;69407;44.966;19.622;2024-03-08T10:10:42;17.00;;;10.32;;
80101;SDS011;69407;44.966;19.622;2024-03-08T10:13:11;12.95;;;8.30;;
80101;SDS011;69407;44.966;19.622;2024-03-08T10:15:41;17.63;;;10.32;;
80101;SDS011;69407;44.966;19.622;2024-03-08T10:20:32;15.75;;;9.77;;
80101;SDS011;69407;44.966;19.622;2024-03-08T10:23:02;14.77;;;10.63;;
80101;SDS011;69407;44.966;19.622;2024-03-08T10:25:30;16.23;;;10.30;;
80101;SDS011;69407;44.966;19.622;2024-03-08T10:27:56;18.88;;;11.50;;
80101;SDS011;69407;44.966;19.622;2024-03-08T10:30:22;15.25;;;9.88;;
80101;SDS011;69407;44.966;19.622;2024-03-08T10:32:48;16.23;;;10.82;;
80101;SDS011;69407;44.966;19.622;2024-03-08T10:35:14;16.73;;;11.15;;
80101;SDS011;69407;44.966;19.622;2024-03-08T10:37:46;14.50;;;8.82;;
80101;SDS011;69407;44.966;19.622;2024-03-08T10:40:15;15.23;;;9.73;;
80101;SDS011;69407;44.966;19.622;2024-03-08T10:42:52;15.57;;;9.63;;
80101;SDS011;69407;44.966;19.622;2024-03-08T10:45:35;15.65;;;9.52;;
80101;SDS011;69407;44.966;19.622;2024-03-08T10:50:59;16.63;;;10.57;;
80101;SDS011;69407;44.966;19.622;2024-03-08T10:53:27;25.85;;;14.95;;
80101;SDS011;69407;44.966;19.622;2024-03-08T10:55:54;21.45;;;13.43;;
80101;SDS011;69407;44.966;19.622;2024-03-08T10:58:24;20.63;;;13.63;;
80101;SDS011;69407;44.966;19.622;2024-03-08T11:00:55;19.30;;;12.40;;
80101;SDS011;69407;44.966;19.622;2024-03-08T11:06:15;29.85;;;19.27;;
80101;SDS011;69407;44.966;19.622;2024-03-08T11:08:48;33.42;;;16.48;;
80101;SDS011;69407;44.966;19.622;2024-03-08T11:13:52;22.77;;;14.23;;
80101;SDS011;69407;44.966;19.622;2024-03-08T11:16:37;82.97;;;53.05;;
80101;SDS011;69407;44.966;19.622;2024-03-08T11:19:26;61.50;;;41.13;;
80101;SDS011;69407;44.966;19.622;2024-03-08T11:21:57;31.67;;;19.75;;
80101;SDS011;69407;44.966;19.622;2024-03-08T11:24:23;26.63;;;16.83;;
80101;SDS011;69407;44.966;19.622;2024-03-08T11:26:48;57.40;;;33.03;;
80101;SDS011;69407;44.966;19.622;2024-03-08T11:32:10;32.42;;;20.88;;
80101;SDS011;69407;44.966;19.622;2024-03-08T11:34:47;22.52;;;14.27;;
80101;SDS011;69407;44.966;19.622;2024-03-08T11:37:16;18.42;;;11.93;;
80101;SDS011;69407;44.966;19.622;2024-03-08T11:39:49;27.85;;;18.40;;
80101;SDS011;69407;44.966;19.622;2024-03-08T11:42:16;18.77;;;13.00;;
80101;SDS011;69407;44.966;19.622;2024-03-08T11:44:43;17.90;;;12.70;;
80101;SDS011;69407;44.966;19.622;2024-03-08T11:47:10;17.95;;;12.95;;
80101;SDS011;69407;44.966;19.622;2024-03-08T11:49:36;19.58;;;12.63;;
80101;SDS011;69407;44.966;19.622;2024-03-08T11:52:02;19.58;;;13.57;;
80101;SDS011;69407;44.966;19.622;2024-03-08T11:54:28;21.42;;;13.65;;
80101;SDS011;69407;44.966;19.622;2024-03-08T11:56:57;35.25;;;23.17;;
80101;SDS011;69407;44.966;19.622;2024-03-08T11:59:28;21.60;;;14.43;;
80101;SDS011;69407;44.966;19.622;2024-03-08T12:02:02;19.55;;;13.25;;
80101;SDS011;69407;44.966;19.622;2024-03-08T12:04:29;24.92;;;18.63;;
80101;SDS011;69407;44.966;19.622;2024-03-08T12:06:56;18.77;;;12.45;;
80101;SDS011;69407;44.966;19.622;2024-03-08T12:09:27;20.20;;;13.10;;
80101;SDS011;69407;44.966;19.622;2024-03-08T12:11:52;21.00;;;13.95;;
80101;SDS011;69407;44.966;19.622;2024-03-08T12:14:18;20.63;;;13.25;;
80101;SDS011;69407;44.966;19.622;2024-03-08T12:16:44;25.05;;;15.40;;
80101;SDS011;69407;44.966;19.622;2024-03-08T12:19:09;21.38;;;13.85;;
80101;SDS011;69407;44.966;19.622;2024-03-08T12:21:35;22.48;;;15.02;;
80101;SDS011;69407;44.966;19.622;2024-03-08T12:24:05;28.05;;;18.73;;
80101;SDS011;69407;44.966;19.622;2024-03-08T12:26:35;21.92;;;13.75;;
80101;SDS011;69407;44.966;19.622;2024-03-08T12:29:21;34.33;;;22.25;;
80101;SDS011;69407;44.966;19.622;2024-03-08T12:31:53;37.15;;;20.55;;
80101;SDS011;69407;44.966;19.622;2024-03-08T12:34:26;24.35;;;14.48;;
80101;SDS011;69407;44.966;19.622;2024-03-08T12:36:53;20.85;;;14.13;;
80101;SDS011;69407;44.966;19.622;2024-03-08T12:39:20;19.45;;;12.75;;
80101;SDS011;69407;44.966;19.622;2024-03-08T12:41:48;18.83;;;12.43;;
80101;SDS011;69407;44.966;19.622;2024-03-08T12:44:16;21.17;;;14.30;;
80101;SDS011;69407;44.966;19.622;2024-03-08T12:46:44;19.60;;;14.07;;
80101;SDS011;69407;44.966;19.622;2024-03-08T12:49:10;19.92;;;13.15;;
80101;SDS011;69407;44.966;19.622;2024-03-08T12:51:37;23.10;;;13.48;;
80101;SDS011;69407;44.966;19.622;2024-03-08T12:54:04;24.35;;;13.80;;
80101;SDS011;69407;44.966;19.622;2024-03-08T12:56:32;19.63;;;11.80;;
80101;SDS011;69407;44.966;19.622;2024-03-08T12:59:00;20.83;;;13.68;;
80101;SDS011;69407;44.966;19.622;2024-03-08T13:01:29;20.75;;;13.35;;
80101;SDS011;69407;44.966;19.622;2024-03-08T13:03:57;19.10;;;12.77;;
80101;SDS011;69407;44.966;19.622;2024-03-08T13:06:23;21.42;;;13.82;;
80101;SDS011;69407;44.966;19.622;2024-03-08T13:08:50;22.23;;;13.45;;
80101;SDS011;69407;44.966;19.622;2024-03-08T13:11:18;22.48;;;13.00;;
80101;SDS011;69407;44.966;19.622;2024-03-08T13:13:44;23.83;;;13.13;;
80101;SDS011;69407;44.966;19.622;2024-03-08T13:16:10;19.83;;;13.35;;
80101;SDS011;69407;44.966;19.622;2024-03-08T13:18:37;20.50;;;13.02;;
80101;SDS011;69407;44.966;19.622;2024-03-08T13:21:03;22.27;;;14.65;;
80101;SDS011;69407;44.966;19.622;2024-03-08T13:23:35;21.25;;;14.35;;
80101;SDS011;69407;44.966;19.622;2024-03-08T13:26:10;22.33;;;15.23;;
80101;SDS011;69407;44.966;19.622;2024-03-08T13:28:41;24.30;;;13.77;;
80101;SDS011;69407;44.966;19.622;2024-03-08T13:31:19;26.15;;;16.90;;
80101;SDS011;69407;44.966;19.622;2024-03-08T13:33:45;21.58;;;14.27;;
80101;SDS011;69407;44.966;19.622;2024-03-08T13:36:12;23.75;;;15.73;;
80101;SDS011;69407;44.966;19.622;2024-03-08T13:38:45;24.10;;;14.48;;
80101;SDS011;69407;44.966;19.622;2024-03-08T13:41:12;25.13;;;13.90;;
80101;SDS011;69407;44.966;19.622;2024-03-08T13:43:43;27.50;;;17.08;;
80101;SDS011;69407;44.966;19.622;2024-03-08T13:46:10;25.25;;;15.48;;
80101;SDS011;69407;44.966;19.622;2024-03-08T13:48:36;31.55;;;16.15;;
80101;SDS011;69407;44.966;19.622;2024-03-08T13:51:05;21.02;;;13.65;;
80101;SDS011;69407;44.966;19.622;2024-03-08T13:53:35;22.58;;;14.07;;
80101;SDS011;69407;44.966;19.622;2024-03-08T13:56:04;20.40;;;13.23;;
80101;SDS011;69407;44.966;19.622;2024-03-08T13:58:30;24.95;;;14.10;;
80101;SDS011;69407;44.966;19.622;2024-03-08T14:00:56;21.63;;;13.55;;
80101;SDS011;69407;44.966;19.622;2024-03-08T14:03:22;23.20;;;15.18;;
80101;SDS011;69407;44.966;19.622;2024-03-08T14:05:49;23.85;;;14.00;;
80101;SDS011;69407;44.966;19.622;2024-03-08T14:08:15;19.73;;;12.65;;
80101;SDS011;69407;44.966;19.622;2024-03-08T14:10:42;21.02;;;13.48;;
80101;SDS011;69407;44.966;19.622;2024-03-08T14:13:08;19.55;;;13.75;;
80101;SDS011;69407;44.966;19.622;2024-03-08T14:15:34;29.50;;;19.20;;
80101;SDS011;69407;44.966;19.622;2024-03-08T14:17:59;35.20;;;28.00;;
80101;SDS011;69407;44.966;19.622;2024-03-08T14:20:27;23.33;;;14.68;;
80101;SDS011;69407;44.966;19.622;2024-03-08T14:22:53;22.83;;;16.58;;
80101;SDS011;69407;44.966;19.622;2024-03-08T14:25:19;21.17;;;13.82;;
80101;SDS011;69407;44.966;19.622;2024-03-08T14:27:49;18.20;;;13.10;;
80101;SDS011;69407;44.966;19.622;2024-03-08T14:30:19;23.05;;;15.38;;
80101;SDS011;69407;44.966;19.622;2024-03-08T14:33:06;28.95;;;18.20;;
80101;SDS011;69407;44.966;19.622;2024-03-08T14:35:36;22.65;;;13.60;;
80101;SDS011;69407;44.966;19.622;2024-03-08T14:38:04;29.15;;;18.83;;
80101;SDS011;69407;44.966;19.622;2024-03-08T14:40:33;30.35;;;19.73;;
80101;SDS011;69407;44.966;19.622;2024-03-08T14:42:58;28.10;;;17.70;;